SAZS

San Carlos De Bariloche Airport

San Carlos de Bariloche, Argentina
METAR SAZS 201200Z 32003KT 260V360 CAVOK 16/05 Q1012
Observed Flight Rules
Jan-20 @ 12:00 UTC (an hour ago) Visual Flight Rules
Wind Visibility Clouds
320° at 3 knots 10,000+ meters
  • Clear skies
Temperatures Readings
Current 16°C / 61°F
Dewpoint 5°C / 41°F
Humidity 48%
Altimeter 29.88" Hg
Pressure 1011.92 hPa
Elevation 840
METAR SAZS 201200Z 32003KT 260V360 CAVOK 16/05 Q1012
Observed Flight Rules
Jan-20 @ 12:00 UTC
(an hour ago)
VFR
Wind Visibility
320° at 3 knots 10,000+ meters
Clouds
  • Clear skies
Temperature Dewpoint
16°C / 61°F 5°C / 41°F
Humidity Altimeter Pressure
48% 29.88" Hg 1011.92 hPa